sensor_id;sensor_type;location;lat;lon;timestamp;pressure;altitude;pressure_sealevel;temperature;humidity
74437;BME280;62868;52.360;30.424;2022-09-17T00:03:48;1013.7;;;11.5;65.9
74437;BME280;62868;52.360;30.424;2022-09-17T00:08:22;1013.6;;;11.5;66
74437;BME280;62868;52.360;30.424;2022-09-17T00:13:36;1013.6;;;11.4;66
74437;BME280;62868;52.360;30.424;2022-09-17T00:18:22;1013.6;;;11.4;66.1
74437;BME280;62868;52.360;30.424;2022-09-17T00:24:01;1013.6;;;11.4;66.1
74437;BME280;62868;52.360;30.424;2022-09-17T00:28:48;1013.6;;;11.4;66.1
74437;BME280;62868;52.360;30.424;2022-09-17T00:33:32;1013.6;;;11.3;66.1
74437;BME280;62868;52.360;30.424;2022-09-17T00:38:22;1013.6;;;11.3;66.2
74437;BME280;62868;52.360;30.424;2022-09-17T00:43:49;1013.6;;;11.3;66.2
74437;BME280;62868;52.360;30.424;2022-09-17T00:49:05;1013.7;;;11.2;66.4
74437;BME280;62868;52.360;30.424;2022-09-17T00:53:32;1013.7;;;11.2;66.4
74437;BME280;62868;52.360;30.424;2022-09-17T00:58:32;1013.7;;;11.2;66.4
74437;BME280;62868;52.360;30.424;2022-09-17T01:03:30;1013.7;;;11.1;66.6
74437;BME280;62868;52.360;30.424;2022-09-17T01:08:52;1013.8;;;11.1;66.6
74437;BME280;62868;52.360;30.424;2022-09-17T01:13:27;1013.9;;;11.1;66.6
74437;BME280;62868;52.360;30.424;2022-09-17T01:19:05;1014;;;11.1;66.6
74437;BME280;62868;52.360;30.424;2022-09-17T01:24:53;1014.1;;;11;66.8
74437;BME280;62868;52.360;30.424;2022-09-17T01:29:06;1014.1;;;11;66.8
74437;BME280;62868;52.360;30.424;2022-09-17T01:43:37;1014.2;;;11;66.9
74437;BME280;62868;52.360;30.424;2022-09-17T01:48:33;1014.2;;;10.9;67
74437;BME280;62868;52.360;30.424;2022-09-17T01:53:24;1014.2;;;11;67
74437;BME280;62868;52.360;30.424;2022-09-17T01:59:03;1014.3;;;10.9;67
74437;BME280;62868;52.360;30.424;2022-09-17T02:04:05;1014.3;;;10.9;67.1
74437;BME280;62868;52.360;30.424;2022-09-17T02:08:23;1014.3;;;10.9;67.1
74437;BME280;62868;52.360;30.424;2022-09-17T02:14:12;1014.3;;;10.8;67.2
74437;BME280;62868;52.360;30.424;2022-09-17T02:19:01;1014.2;;;10.8;67.2
74437;BME280;62868;52.360;30.424;2022-09-17T02:28:55;1014.1;;;10.8;67.4
74437;BME280;62868;52.360;30.424;2022-09-17T02:33:47;1014.1;;;10.7;67.4
74437;BME280;62868;52.360;30.424;2022-09-17T02:38:44;1014.2;;;10.7;67.4
74437;BME280;62868;52.360;30.424;2022-09-17T02:43:25;1014.1;;;10.7;67.5
74437;BME280;62868;52.360;30.424;2022-09-17T02:48:41;1014.2;;;10.6;67.5
74437;BME280;62868;52.360;30.424;2022-09-17T02:54:06;1014.3;;;10.6;67.6
74437;BME280;62868;52.360;30.424;2022-09-17T02:58:56;1014.3;;;10.5;67.7
74437;BME280;62868;52.360;30.424;2022-09-17T03:04:07;1014.4;;;10.5;67.7
74437;BME280;62868;52.360;30.424;2022-09-17T03:08:44;1014.4;;;10.5;67.7
74437;BME280;62868;52.360;30.424;2022-09-17T03:14:04;1014.5;;;10.5;67.8
74437;BME280;62868;52.360;30.424;2022-09-17T03:19:06;1014.4;;;10.5;67.8
74437;BME280;62868;52.360;30.424;2022-09-17T03:24:04;1014.4;;;10.5;67.8
74437;BME280;62868;52.360;30.424;2022-09-17T03:28:32;1014.4;;;10.5;67.8
74437;BME280;62868;52.360;30.424;2022-09-17T03:33:22;1014.3;;;10.5;67.8
74437;BME280;62868;52.360;30.424;2022-09-17T03:39:04;1014.2;;;10.6;67.7
74437;BME280;62868;52.360;30.424;2022-09-17T03:43:46;1014.1;;;10.7;67.7
74437;BME280;62868;52.360;30.424;2022-09-17T03:48:26;1014.1;;;10.8;67.7
74437;BME280;62868;52.360;30.424;2022-09-17T03:54:00;1014.2;;;10.9;67.5
74437;BME280;62868;52.360;30.424;2022-09-17T03:58:50;1014.2;;;11;67.4
74437;BME280;62868;52.360;30.424;2022-09-17T04:03:34;1014.2;;;11.2;67.3
74437;BME280;62868;52.360;30.424;2022-09-17T04:08:50;1014.1;;;11.3;67.2
74437;BME280;62868;52.360;30.424;2022-09-17T04:14:04;1014.1;;;11.4;67.1
74437;BME280;62868;52.360;30.424;2022-09-17T04:18:44;1014.2;;;11.7;67
74437;BME280;62868;52.360;30.424;2022-09-17T04:23:32;1014.2;;;11.9;66.8
74437;BME280;62868;52.360;30.424;2022-09-17T04:29:06;1014.2;;;12;66.6
74437;BME280;62868;52.360;30.424;2022-09-17T04:33:58;1014.2;;;12.2;66.5
74437;BME280;62868;52.360;30.424;2022-09-17T04:39:07;1014.2;;;12.3;66.3
74437;BME280;62868;52.360;30.424;2022-09-17T04:43:46;1014.2;;;12.5;66.1
74437;BME280;62868;52.360;30.424;2022-09-17T04:48:58;1014.2;;;12.6;66
74437;BME280;62868;52.360;30.424;2022-09-17T04:54:06;1014.3;;;12.7;65.9
74437;BME280;62868;52.360;30.424;2022-09-17T04:58:32;1014.3;;;12.7;65.9
74437;BME280;62868;52.360;30.424;2022-09-17T05:03:28;1014.4;;;12.7;65.8
74437;BME280;62868;52.360;30.424;2022-09-17T05:08:22;1014.3;;;12.7;65.8
74437;BME280;62868;52.360;30.424;2022-09-17T05:13:28;1014.3;;;12.8;65.6
74437;BME280;62868;52.360;30.424;2022-09-17T05:18:46;1014.4;;;13;65.4
74437;BME280;62868;52.360;30.424;2022-09-17T05:23:44;1014.5;;;13.1;65.2
74437;BME280;62868;52.360;30.424;2022-09-17T05:29:04;1014.5;;;13.2;65.2
74437;BME280;62868;52.360;30.424;2022-09-17T05:34:04;1014.5;;;13.1;65.2
74437;BME280;62868;52.360;30.424;2022-09-17T05:38:44;1014.5;;;13.2;65.1
74437;BME280;62868;52.360;30.424;2022-09-17T05:44:04;1014.6;;;13.3;65.1
74437;BME280;62868;52.360;30.424;2022-09-17T05:49:06;1014.6;;;13.3;65
74437;BME280;62868;52.360;30.424;2022-09-17T05:54:06;1014.7;;;13.5;64.8
74437;BME280;62868;52.360;30.424;2022-09-17T05:58:44;1014.8;;;13.6;64.6
74437;BME280;62868;52.360;30.424;2022-09-17T06:03:34;1014.7;;;13.8;64.4
74437;BME280;62868;52.360;30.424;2022-09-17T06:09:04;1014.8;;;13.9;64.3
74437;BME280;62868;52.360;30.424;2022-09-17T06:13:52;1014.9;;;14.1;64
74437;BME280;62868;52.360;30.424;2022-09-17T06:18:50;1014.8;;;14.2;63.8
74437;BME280;62868;52.360;30.424;2022-09-17T06:23:59;1014.9;;;14.3;63.7
74437;BME280;62868;52.360;30.424;2022-09-17T06:28:48;1014.9;;;14.3;63.7
74437;BME280;62868;52.360;30.424;2022-09-17T06:33:40;1014.9;;;14.5;63.5
74437;BME280;62868;52.360;30.424;2022-09-17T06:38:52;1014.9;;;14.6;63.2
74437;BME280;62868;52.360;30.424;2022-09-17T06:44:02;1014.9;;;14.6;63.2
74437;BME280;62868;52.360;30.424;2022-09-17T06:48:35;1015;;;14.6;63.2
74437;BME280;62868;52.360;30.424;2022-09-17T06:53:23;1015.1;;;14.6;63.2
74437;BME280;62868;52.360;30.424;2022-09-17T06:58:23;1015.1;;;14.6;63.2
74437;BME280;62868;52.360;30.424;2022-09-17T07:04:00;1015.1;;;14.5;63.2
74437;BME280;62868;52.360;30.424;2022-09-17T07:09:06;1015;;;14.6;63.1
74437;BME280;62868;52.360;30.424;2022-09-17T07:13:46;1015;;;14.7;63
74437;BME280;62868;52.360;30.424;2022-09-17T07:19:06;1015.1;;;14.9;62.8
74437;BME280;62868;52.360;30.424;2022-09-17T07:23:58;1015.2;;;15.1;62.5
74437;BME280;62868;52.360;30.424;2022-09-17T07:28:23;1015.2;;;15.4;62.1
74437;BME280;62868;52.360;30.424;2022-09-17T07:33:39;1015.2;;;15.5;62.1
74437;BME280;62868;52.360;30.424;2022-09-17T07:38:58;1015.1;;;15.5;62.1
74437;BME280;62868;52.360;30.424;2022-09-17T07:43:33;1015.1;;;15.9;61.6
74437;BME280;62868;52.360;30.424;2022-09-17T07:48:22;1015.1;;;16.7;60.5
74437;BME280;62868;52.360;30.424;2022-09-17T07:53:46;1015.1;;;17.4;59.9
74437;BME280;62868;52.360;30.424;2022-09-17T07:59:07;1015.1;;;17.7;59.5
74437;BME280;62868;52.360;30.424;2022-09-17T08:03:51;1015.1;;;18.2;59
74437;BME280;62868;52.360;30.424;2022-09-17T08:08:46;1015.1;;;19;58
74437;BME280;62868;52.360;30.424;2022-09-17T08:13:48;1015.2;;;19.5;57.3
74437;BME280;62868;52.360;30.424;2022-09-17T08:18:48;1015.1;;;19.6;56.9
74437;BME280;62868;52.360;30.424;2022-09-17T08:24:04;1015.2;;;20;56.4
74437;BME280;62868;52.360;30.424;2022-09-17T08:28:23;1015.1;;;20.2;56
74437;BME280;62868;52.360;30.424;2022-09-17T08:33:34;1015.1;;;20.5;55.5
74437;BME280;62868;52.360;30.424;2022-09-17T08:38:22;1015.1;;;20.6;55.1
74437;BME280;62868;52.360;30.424;2022-09-17T08:44:11;1015.1;;;20.7;54.7
74437;BME280;62868;52.360;30.424;2022-09-17T08:48:49;1015;;;20.9;54.4
74437;BME280;62868;52.360;30.424;2022-09-17T08:54:02;1015;;;20.8;54.2
74437;BME280;62868;52.360;30.424;2022-09-17T08:59:28;1015.1;;;20.8;54
74437;BME280;62868;52.360;30.424;2022-09-17T09:08:41;1015;;;20.8;53.5
74437;BME280;62868;52.360;30.424;2022-09-17T09:14:10;1015;;;21;53.1
74437;BME280;62868;52.360;30.424;2022-09-17T09:18:24;1014.9;;;21;53
74437;BME280;62868;52.360;30.424;2022-09-17T09:23:26;1014.9;;;21.1;52.7
74437;BME280;62868;52.360;30.424;2022-09-17T09:29:06;1014.9;;;21.4;52.2
74437;BME280;62868;52.360;30.424;2022-09-17T09:34:06;1014.9;;;21.5;51.9
74437;BME280;62868;52.360;30.424;2022-09-17T09:39:08;1014.9;;;21.4;51.7
74437;BME280;62868;52.360;30.424;2022-09-17T09:43:50;1014.9;;;21.3;51.5
74437;BME280;62868;52.360;30.424;2022-09-17T09:49:13;1014.9;;;21.5;51.2
74437;BME280;62868;52.360;30.424;2022-09-17T09:54:06;1015;;;21.7;50.8
74437;BME280;62868;52.360;30.424;2022-09-17T09:58:39;1015;;;21.8;50.6
74437;BME280;62868;52.360;30.424;2022-09-17T10:03:29;1015;;;22;50.1
74437;BME280;62868;52.360;30.424;2022-09-17T10:08:33;1015;;;21.9;50
74437;BME280;62868;52.360;30.424;2022-09-17T10:13:35;1015;;;21.8;49.8
74437;BME280;62868;52.360;30.424;2022-09-17T10:18:40;1015;;;21.9;49.5
74437;BME280;62868;52.360;30.424;2022-09-17T10:23:46;1015.1;;;22.1;49.1
74437;BME280;62868;52.360;30.424;2022-09-17T10:29:15;1015;;;21.9;49.3
74437;BME280;62868;52.360;30.424;2022-09-17T10:33:56;1015;;;22;48.9
74437;BME280;62868;52.360;30.424;2022-09-17T10:38:46;1015;;;21.9;48.7
74437;BME280;62868;52.360;30.424;2022-09-17T10:43:44;1015;;;22.1;48.4
74437;BME280;62868;52.360;30.424;2022-09-17T10:49:09;1015.1;;;22.2;48.2
74437;BME280;62868;52.360;30.424;2022-09-17T10:54:12;1015.2;;;22.3;48
74437;BME280;62868;52.360;30.424;2022-09-17T10:59:43;1015.2;;;22.3;48
74437;BME280;62868;52.360;30.424;2022-09-17T11:09:04;1015.1;;;22.4;47.5
74437;BME280;62868;52.360;30.424;2022-09-17T11:18:34;1015.1;;;22.5;47
74437;BME280;62868;52.360;30.424;2022-09-17T11:24:03;1015;;;22.5;46.9
74437;BME280;62868;52.360;30.424;2022-09-17T11:34:01;1014.9;;;22.6;46.4
74437;BME280;62868;52.360;30.424;2022-09-17T11:38:39;1014.8;;;22.7;45.9
74437;BME280;62868;52.360;30.424;2022-09-17T11:43:59;1014.8;;;22.7;45.8
74437;BME280;62868;52.360;30.424;2022-09-17T11:48:26;1014.7;;;22.5;46
74437;BME280;62868;52.360;30.424;2022-09-17T11:53:41;1014.7;;;22.2;46.3
74437;BME280;62868;52.360;30.424;2022-09-17T11:58:34;1014.6;;;22.1;46.2
74437;BME280;62868;52.360;30.424;2022-09-17T12:09:02;1014.6;;;22.4;45.4
74437;BME280;62868;52.360;30.424;2022-09-17T12:14:25;1014.7;;;22.4;45.4
74437;BME280;62868;52.360;30.424;2022-09-17T12:19:20;1014.6;;;22.3;45.4
74437;BME280;62868;52.360;30.424;2022-09-17T12:24:02;1014.6;;;22.2;45.3
74437;BME280;62868;52.360;30.424;2022-09-17T12:29:20;1014.5;;;22.3;45.1
74437;BME280;62868;52.360;30.424;2022-09-17T12:33:45;1014.6;;;22.5;44.8
74437;BME280;62868;52.360;30.424;2022-09-17T12:38:58;1014.6;;;22.7;44.5
74437;BME280;62868;52.360;30.424;2022-09-17T12:48:45;1014.5;;;22.5;44.6
74437;BME280;62868;52.360;30.424;2022-09-17T12:53:35;1014.5;;;21.8;45.2
74437;BME280;62868;52.360;30.424;2022-09-17T12:58:41;1014.3;;;21.5;45.5
74437;BME280;62868;52.360;30.424;2022-09-17T13:04:11;1014.3;;;21.6;45.3
74437;BME280;62868;52.360;30.424;2022-09-17T13:09:13;1014.3;;;21.9;45.1
74437;BME280;62868;52.360;30.424;2022-09-17T13:13:55;1014.3;;;22;44.8
74437;BME280;62868;52.360;30.424;2022-09-17T13:19:11;1014.5;;;22;44.8
74437;BME280;62868;52.360;30.424;2022-09-17T13:24:15;1014.5;;;21.9;44.7
74437;BME280;62868;52.360;30.424;2022-09-17T13:29:08;1014.5;;;21.9;44.7
74437;BME280;62868;52.360;30.424;2022-09-17T13:33:55;1014.6;;;22.2;44.4
74437;BME280;62868;52.360;30.424;2022-09-17T13:38:39;1014.6;;;22.2;44.4
74437;BME280;62868;52.360;30.424;2022-09-17T13:44:08;1014.4;;;22;44.5
74437;BME280;62868;52.360;30.424;2022-09-17T13:48:54;1014.5;;;21.8;44.6
74437;BME280;62868;52.360;30.424;2022-09-17T13:53:52;1014.6;;;21.6;44.6
74437;BME280;62868;52.360;30.424;2022-09-17T13:59:06;1014.5;;;21.4;44.7
74437;BME280;62868;52.360;30.424;2022-09-17T14:04:04;1014.4;;;21.1;44.9
74437;BME280;62868;52.360;30.424;2022-09-17T14:08:48;1014.2;;;20.9;45.1
74437;BME280;62868;52.360;30.424;2022-09-17T14:13:39;1014.2;;;20.7;45.3
74437;BME280;62868;52.360;30.424;2022-09-17T14:19:19;1014.3;;;20.5;45.5
74437;BME280;62868;52.360;30.424;2022-09-17T14:23:22;1014.3;;;20.3;45.8
74437;BME280;62868;52.360;30.424;2022-09-17T14:28:55;1014.4;;;20.2;46
74437;BME280;62868;52.360;30.424;2022-09-17T14:34:10;1014.5;;;20.1;46.2
74437;BME280;62868;52.360;30.424;2022-09-17T14:38:56;1014.4;;;20;46.4
74437;BME280;62868;52.360;30.424;2022-09-17T14:44:06;1014.4;;;19.9;46.6
74437;BME280;62868;52.360;30.424;2022-09-17T14:48:44;1014.4;;;19.8;46.7
74437;BME280;62868;52.360;30.424;2022-09-17T14:54:05;1014.4;;;19.7;46.9
74437;BME280;62868;52.360;30.424;2022-09-17T14:59:11;1014.3;;;19.6;47.1
74437;BME280;62868;52.360;30.424;2022-09-17T15:03:38;1014.4;;;19.5;47.3
74437;BME280;62868;52.360;30.424;2022-09-17T15:08:40;1014.4;;;19.4;47.5
74437;BME280;62868;52.360;30.424;2022-09-17T15:13:36;1014.4;;;19.3;47.7
74437;BME280;62868;52.360;30.424;2022-09-17T15:18:29;1014.5;;;19.1;48
74437;BME280;62868;52.360;30.424;2022-09-17T15:23:48;1014.5;;;18.9;48.3
74437;BME280;62868;52.360;30.424;2022-09-17T15:28:48;1014.5;;;18.8;48.5
74437;BME280;62868;52.360;30.424;2022-09-17T15:34:09;1014.5;;;18.7;48.6
74437;BME280;62868;52.360;30.424;2022-09-17T15:39:41;1014.5;;;18.5;48.9
74437;BME280;62868;52.360;30.424;2022-09-17T15:43:45;1014.4;;;18.3;49.2
74437;BME280;62868;52.360;30.424;2022-09-17T15:49:27;1014.4;;;18.1;49.5
74437;BME280;62868;52.360;30.424;2022-09-17T15:54:25;1014.4;;;17.9;49.8
74437;BME280;62868;52.360;30.424;2022-09-17T15:59:25;1014.4;;;17.7;50.2
74437;BME280;62868;52.360;30.424;2022-09-17T16:08:49;1014.4;;;17.3;50.9
74437;BME280;62868;52.360;30.424;2022-09-17T16:13:34;1014.4;;;17.2;51.1
74437;BME280;62868;52.360;30.424;2022-09-17T16:18:54;1014.5;;;17.1;51.4
74437;BME280;62868;52.360;30.424;2022-09-17T16:23:46;1014.4;;;17;51.7
74437;BME280;62868;52.360;30.424;2022-09-17T16:29:02;1014.5;;;16.9;52
74437;BME280;62868;52.360;30.424;2022-09-17T16:34:06;1014.5;;;16.8;52.3
74437;BME280;62868;52.360;30.424;2022-09-17T16:38:48;1014.5;;;16.6;52.6
74437;BME280;62868;52.360;30.424;2022-09-17T16:43:52;1014.5;;;16.5;52.9
74437;BME280;62868;52.360;30.424;2022-09-17T16:49:06;1014.5;;;16.5;53.1
74437;BME280;62868;52.360;30.424;2022-09-17T16:53:40;1014.5;;;16.4;53.2
74437;BME280;62868;52.360;30.424;2022-09-17T16:58:34;1014.5;;;16.4;53.4
74437;BME280;62868;52.360;30.424;2022-09-17T17:04:08;1014.5;;;16.3;53.7
74437;BME280;62868;52.360;30.424;2022-09-17T17:09:06;1014.6;;;16.3;53.8
74437;BME280;62868;52.360;30.424;2022-09-17T17:14:06;1014.6;;;16.2;54.1
74437;BME280;62868;52.360;30.424;2022-09-17T17:18:46;1014.6;;;16.2;54.4
74437;BME280;62868;52.360;30.424;2022-09-17T17:24:09;1014.6;;;16.1;54.5
74437;BME280;62868;52.360;30.424;2022-09-17T17:29:00;1014.7;;;16.1;54.8
74437;BME280;62868;52.360;30.424;2022-09-17T17:33:38;1014.8;;;16;54.9
74437;BME280;62868;52.360;30.424;2022-09-17T17:38:40;1014.8;;;15.9;55.2
74437;BME280;62868;52.360;30.424;2022-09-17T17:43:22;1014.8;;;15.9;55.4
74437;BME280;62868;52.360;30.424;2022-09-17T17:48:35;1014.7;;;15.8;55.7
74437;BME280;62868;52.360;30.424;2022-09-17T17:54:08;1014.7;;;15.7;55.9
74437;BME280;62868;52.360;30.424;2022-09-17T17:58:46;1014.6;;;15.7;56.2
74437;BME280;62868;52.360;30.424;2022-09-17T18:04:05;1014.6;;;15.6;56.5
74437;BME280;62868;52.360;30.424;2022-09-17T18:08:53;1014.7;;;15.5;56.8
74437;BME280;62868;52.360;30.424;2022-09-17T18:13:49;1014.6;;;15.5;57
74437;BME280;62868;52.360;30.424;2022-09-17T18:18:47;1014.4;;;15.4;57.3
74437;BME280;62868;52.360;30.424;2022-09-17T18:23:53;1014.4;;;15.4;57.6
74437;BME280;62868;52.360;30.424;2022-09-17T18:28:57;1014.5;;;15.3;57.9
74437;BME280;62868;52.360;30.424;2022-09-17T18:33:45;1014.5;;;15.3;58.2
74437;BME280;62868;52.360;30.424;2022-09-17T18:38:23;1014.5;;;15.2;58.5
74437;BME280;62868;52.360;30.424;2022-09-17T18:43:35;1014.5;;;15.2;58.8
74437;BME280;62868;52.360;30.424;2022-09-17T18:48:55;1014.5;;;15.2;59
74437;BME280;62868;52.360;30.424;2022-09-17T18:53:49;1014.6;;;15.1;59.3
74437;BME280;62868;52.360;30.424;2022-09-17T18:58:59;1014.6;;;15.1;59.5
74437;BME280;62868;52.360;30.424;2022-09-17T19:03:51;1014.7;;;15.1;59.6
74437;BME280;62868;52.360;30.424;2022-09-17T19:09:05;1014.7;;;15.1;59.9
74437;BME280;62868;52.360;30.424;2022-09-17T19:13:55;1014.7;;;15.1;60.1
74437;BME280;62868;52.360;30.424;2022-09-17T19:19:07;1014.6;;;15;60.3
74437;BME280;62868;52.360;30.424;2022-09-17T19:23:38;1014.5;;;15;60.5
74437;BME280;62868;52.360;30.424;2022-09-17T19:29:07;1014.5;;;15;60.6
74437;BME280;62868;52.360;30.424;2022-09-17T19:33:33;1014.5;;;15;60.7
74437;BME280;62868;52.360;30.424;2022-09-17T19:39:09;1014.5;;;15;60.8
74437;BME280;62868;52.360;30.424;2022-09-17T19:44:09;1014.5;;;14.9;61.1
74437;BME280;62868;52.360;30.424;2022-09-17T19:48:47;1014.4;;;14.8;61.3
74437;BME280;62868;52.360;30.424;2022-09-17T19:54:05;1014.4;;;14.8;61.4
74437;BME280;62868;52.360;30.424;2022-09-17T19:58:59;1014.4;;;14.8;61.6
74437;BME280;62868;52.360;30.424;2022-09-17T20:03:41;1014.5;;;14.8;61.7
74437;BME280;62868;52.360;30.424;2022-09-17T20:08:42;1014.4;;;14.8;61.8
74437;BME280;62868;52.360;30.424;2022-09-17T20:13:45;1014.4;;;14.8;61.8
74437;BME280;62868;52.360;30.424;2022-09-17T20:18:35;1014.4;;;14.8;61.9
74437;BME280;62868;52.360;30.424;2022-09-17T20:23:23;1014.4;;;14.8;62
74437;BME280;62868;52.360;30.424;2022-09-17T20:28:49;1014.6;;;14.8;62
74437;BME280;62868;52.360;30.424;2022-09-17T20:33:50;1014.6;;;14.8;62.1
74437;BME280;62868;52.360;30.424;2022-09-17T20:39:08;1014.6;;;14.8;62.2
74437;BME280;62868;52.360;30.424;2022-09-17T20:44:09;1014.5;;;14.7;62.3
74437;BME280;62868;52.360;30.424;2022-09-17T20:48:45;1014.5;;;14.7;62.4
74437;BME280;62868;52.360;30.424;2022-09-17T20:54:08;1014.5;;;14.6;62.4
74437;BME280;62868;52.360;30.424;2022-09-17T20:59:07;1014.5;;;14.6;62.5
74437;BME280;62868;52.360;30.424;2022-09-17T21:03:53;1014.6;;;14.6;62.6
74437;BME280;62868;52.360;30.424;2022-09-17T21:08:23;1014.5;;;14.6;62.6
74437;BME280;62868;52.360;30.424;2022-09-17T21:13:55;1014.5;;;14.6;62.6
74437;BME280;62868;52.360;30.424;2022-09-17T21:19:09;1014.4;;;14.6;62.7
74437;BME280;62868;52.360;30.424;2022-09-17T21:23:53;1014.4;;;14.6;62.8
74437;BME280;62868;52.360;30.424;2022-09-17T21:28:49;1014.3;;;14.6;62.9
74437;BME280;62868;52.360;30.424;2022-09-17T21:34:03;1014.1;;;14.5;63
74437;BME280;62868;52.360;30.424;2022-09-17T21:39:04;1014.1;;;14.5;63.1
74437;BME280;62868;52.360;30.424;2022-09-17T21:43:39;1014.2;;;14.4;63.2
74437;BME280;62868;52.360;30.424;2022-09-17T21:48:55;1014.1;;;14.3;63.3
74437;BME280;62868;52.360;30.424;2022-09-17T21:54:10;1014.1;;;14.3;63.4
74437;BME280;62868;52.360;30.424;2022-09-17T21:58:33;1014.2;;;14.2;63.5
74437;BME280;62868;52.360;30.424;2022-09-17T22:03:37;1014.2;;;14;63.7
74437;BME280;62868;52.360;30.424;2022-09-17T22:09:11;1014.1;;;13.9;63.9
74437;BME280;62868;52.360;30.424;2022-09-17T22:14:02;1014.1;;;13.8;64
74437;BME280;62868;52.360;30.424;2022-09-17T22:19:07;1014.1;;;13.7;64.1
74437;BME280;62868;52.360;30.424;2022-09-17T22:23:47;1014;;;13.6;64.2
74437;BME280;62868;52.360;30.424;2022-09-17T22:29:01;1013.8;;;13.5;64.3
74437;BME280;62868;52.360;30.424;2022-09-17T22:34:09;1013.8;;;13.4;64.5
74437;BME280;62868;52.360;30.424;2022-09-17T22:38:39;1013.8;;;13.2;64.7
74437;BME280;62868;52.360;30.424;2022-09-17T22:43:39;1013.6;;;13.1;64.9
74437;BME280;62868;52.360;30.424;2022-09-17T22:48:47;1013.6;;;13.1;65
74437;BME280;62868;52.360;30.424;2022-09-17T22:53:23;1013.6;;;13;65.1
74437;BME280;62868;52.360;30.424;2022-09-17T22:58:37;1013.6;;;12.9;65.2
74437;BME280;62868;52.360;30.424;2022-09-17T23:03:45;1013.6;;;12.8;65.3
74437;BME280;62868;52.360;30.424;2022-09-17T23:09:03;1013.6;;;12.7;65.4
74437;BME280;62868;52.360;30.424;2022-09-17T23:14:04;1013.6;;;12.7;65.4
74437;BME280;62868;52.360;30.424;2022-09-17T23:18:51;1013.5;;;12.7;65.5
74437;BME280;62868;52.360;30.424;2022-09-17T23:24:03;1013.4;;;12.6;65.7
74437;BME280;62868;52.360;30.424;2022-09-17T23:29:03;1013.3;;;12.6;65.9
74437;BME280;62868;52.360;30.424;2022-09-17T23:34:03;1013.2;;;12.5;65.8
74437;BME280;62868;52.360;30.424;2022-09-17T23:38:37;1013.2;;;12.5;66
74437;BME280;62868;52.360;30.424;2022-09-17T23:43:31;1013.2;;;12.5;66.1
74437;BME280;62868;52.360;30.424;2022-09-17T23:49:02;1013.2;;;12.5;66.2
74437;BME280;62868;52.360;30.424;2022-09-17T23:54:01;1013.1;;;12.5;66.2
74437;BME280;62868;52.360;30.424;2022-09-17T23:58:31;1013.1;;;12.6;66.1
